sensor_id;sensor_type;location;lat;lon;timestamp;pressure;altitude;pressure_sealevel;temperature;humidity
29371;BME280;16357;52.188;7.838;2022-11-20T00:01:16;100630.53;;;-0.81;58.40
29371;BME280;16357;52.188;7.838;2022-11-20T00:03:43;100629.84;;;-0.85;58.53
29371;BME280;16357;52.188;7.838;2022-11-20T00:06:11;100633.59;;;-0.89;58.80
29371;BME280;16357;52.188;7.838;2022-11-20T00:08:38;100627.63;;;-0.93;59.02
29371;BME280;16357;52.188;7.838;2022-11-20T00:11:10;100620.84;;;-0.97;59.21
29371;BME280;16357;52.188;7.838;2022-11-20T00:13:43;100626.31;;;-1.00;59.23
29371;BME280;16357;52.188;7.838;2022-11-20T00:16:11;100627.31;;;-1.02;58.61
29371;BME280;16357;52.188;7.838;2022-11-20T00:18:38;100618.72;;;-1.06;59.45
29371;BME280;16357;52.188;7.838;2022-11-20T00:21:06;100623.16;;;-1.06;59.38
29371;BME280;16357;52.188;7.838;2022-11-20T00:23:34;100623.22;;;-1.08;58.95
29371;BME280;16357;52.188;7.838;2022-11-20T00:26:05;100619.84;;;-1.10;59.01
29371;BME280;16357;52.188;7.838;2022-11-20T00:28:32;100608.53;;;-1.12;59.71
29371;BME280;16357;52.188;7.838;2022-11-20T00:31:06;100612.13;;;-1.13;60.02
29371;BME280;16357;52.188;7.838;2022-11-20T00:33:34;100609.56;;;-1.15;59.68
29371;BME280;16357;52.188;7.838;2022-11-20T00:36:02;100613.97;;;-1.15;59.55
29371;BME280;16357;52.188;7.838;2022-11-20T00:38:28;100608.78;;;-1.17;59.48
29371;BME280;16357;52.188;7.838;2022-11-20T00:41:00;100608.91;;;-1.18;59.00
29371;BME280;16357;52.188;7.838;2022-11-20T00:43:27;100606.41;;;-1.21;59.14
29371;BME280;16357;52.188;7.838;2022-11-20T00:46:04;100610.06;;;-1.24;58.96
29371;BME280;16357;52.188;7.838;2022-11-20T00:48:31;100617.22;;;-1.26;58.96
29371;BME280;16357;52.188;7.838;2022-11-20T00:50:58;100615.59;;;-1.28;59.10
29371;BME280;16357;52.188;7.838;2022-11-20T00:53:25;100607.88;;;-1.31;59.30
29371;BME280;16357;52.188;7.838;2022-11-20T00:55:59;100604.47;;;-1.34;59.44
29371;BME280;16357;52.188;7.838;2022-11-20T00:58:30;100612.38;;;-1.34;59.54
29371;BME280;16357;52.188;7.838;2022-11-20T01:01:08;100613.38;;;-1.36;59.91
29371;BME280;16357;52.188;7.838;2022-11-20T01:03:37;100617.03;;;-1.39;59.30
29371;BME280;16357;52.188;7.838;2022-11-20T01:06:07;100617.94;;;-1.40;59.30
29371;BME280;16357;52.188;7.838;2022-11-20T01:08:35;100618.09;;;-1.43;59.16
29371;BME280;16357;52.188;7.838;2022-11-20T01:11:04;100615.75;;;-1.47;59.74
29371;BME280;16357;52.188;7.838;2022-11-20T01:13:31;100616.75;;;-1.50;59.74
29371;BME280;16357;52.188;7.838;2022-11-20T01:16:08;100610.78;;;-1.53;59.37
29371;BME280;16357;52.188;7.838;2022-11-20T01:18:36;100611.81;;;-1.56;59.42
29371;BME280;16357;52.188;7.838;2022-11-20T01:21:05;100611.13;;;-1.60;59.63
29371;BME280;16357;52.188;7.838;2022-11-20T01:23:33;100608.56;;;-1.61;59.73
29371;BME280;16357;52.188;7.838;2022-11-20T01:26:02;100605.19;;;-1.63;60.31
29371;BME280;16357;52.188;7.838;2022-11-20T01:28:29;100603.47;;;-1.64;60.10
29371;BME280;16357;52.188;7.838;2022-11-20T01:30:55;100600.84;;;-1.64;59.58
29371;BME280;16357;52.188;7.838;2022-11-20T01:33:22;100600.06;;;-1.66;59.96
29371;BME280;16357;52.188;7.838;2022-11-20T01:35:48;100598.41;;;-1.67;59.62
29371;BME280;16357;52.188;7.838;2022-11-20T01:38:15;100596.84;;;-1.71;59.43
29371;BME280;16357;52.188;7.838;2022-11-20T01:40:42;100602.09;;;-1.71;59.17
29371;BME280;16357;52.188;7.838;2022-11-20T01:43:16;100596.16;;;-1.75;59.39
29371;BME280;16357;52.188;7.838;2022-11-20T01:48:22;100594.78;;;-1.82;59.04
29371;BME280;16357;52.188;7.838;2022-11-20T01:50:51;100587.16;;;-1.87;59.76
29371;BME280;16357;52.188;7.838;2022-11-20T01:53:21;100589.09;;;-1.90;59.34
29371;BME280;16357;52.188;7.838;2022-11-20T01:55:51;100580.53;;;-1.94;59.75
29371;BME280;16357;52.188;7.838;2022-11-20T01:58:22;100582.38;;;-1.96;59.66
29371;BME280;16357;52.188;7.838;2022-11-20T02:00:50;100574.66;;;-1.99;59.38
29371;BME280;16357;52.188;7.838;2022-11-20T02:03:19;100579.97;;;-2.01;59.64
29371;BME280;16357;52.188;7.838;2022-11-20T02:08:27;100587.34;;;-2.07;59.50
29371;BME280;16357;52.188;7.838;2022-11-20T02:10:54;100581.31;;;-2.09;59.54
29371;BME280;16357;52.188;7.838;2022-11-20T02:13:20;100574.44;;;-2.12;59.50
29371;BME280;16357;52.188;7.838;2022-11-20T02:16:10;100574.50;;;-2.13;59.69
29371;BME280;16357;52.188;7.838;2022-11-20T02:18:36;100571.97;;;-2.15;59.99
29371;BME280;16357;52.188;7.838;2022-11-20T02:24:09;100562.38;;;-2.16;60.84
29371;BME280;16357;52.188;7.838;2022-11-20T02:26:50;100561.53;;;-2.16;60.46
29371;BME280;16357;52.188;7.838;2022-11-20T02:29:25;100559.75;;;-2.16;60.26
29371;BME280;16357;52.188;7.838;2022-11-20T02:31:53;100549.25;;;-2.16;60.43
29371;BME280;16357;52.188;7.838;2022-11-20T02:34:21;100551.03;;;-2.16;60.48
29371;BME280;16357;52.188;7.838;2022-11-20T02:36:48;100551.03;;;-2.16;60.76
29371;BME280;16357;52.188;7.838;2022-11-20T02:39:15;100553.66;;;-2.16;60.58
29371;BME280;16357;52.188;7.838;2022-11-20T02:41:43;100551.03;;;-2.16;61.02
29371;BME280;16357;52.188;7.838;2022-11-20T02:44:09;100553.66;;;-2.16;61.07
29371;BME280;16357;52.188;7.838;2022-11-20T02:46:36;100560.63;;;-2.15;60.84
29371;BME280;16357;52.188;7.838;2022-11-20T02:49:03;100558.91;;;-2.16;60.68
29371;BME280;16357;52.188;7.838;2022-11-20T02:51:31;100559.69;;;-2.14;60.39
29371;BME280;16357;52.188;7.838;2022-11-20T02:53:57;100558.91;;;-2.16;60.62
29371;BME280;16357;52.188;7.838;2022-11-20T02:56:24;100558.06;;;-2.17;60.18
29371;BME280;16357;52.188;7.838;2022-11-20T02:58:50;100554.59;;;-2.17;60.59
29371;BME280;16357;52.188;7.838;2022-11-20T03:01:16;100551.19;;;-2.19;61.01
29371;BME280;16357;52.188;7.838;2022-11-20T03:03:43;100545.94;;;-2.19;60.57
29371;BME280;16357;52.188;7.838;2022-11-20T03:06:09;100544.16;;;-2.19;60.62
29371;BME280;16357;52.188;7.838;2022-11-20T03:08:36;100549.50;;;-2.21;60.76
29371;BME280;16357;52.188;7.838;2022-11-20T03:11:05;100544.25;;;-2.21;60.69
29371;BME280;16357;52.188;7.838;2022-11-20T03:13:32;100546.94;;;-2.22;60.47
29371;BME280;16357;52.188;7.838;2022-11-20T03:15:58;100545.16;;;-2.22;60.24
29371;BME280;16357;52.188;7.838;2022-11-20T03:18:30;100548.72;;;-2.23;60.35
29371;BME280;16357;52.188;7.838;2022-11-20T03:20:58;100548.72;;;-2.23;60.77
29371;BME280;16357;52.188;7.838;2022-11-20T03:23:25;100540.91;;;-2.24;60.23
29371;BME280;16357;52.188;7.838;2022-11-20T03:25:51;100545.31;;;-2.25;60.27
29371;BME280;16357;52.188;7.838;2022-11-20T03:28:18;100537.59;;;-2.28;60.14
29371;BME280;16357;52.188;7.838;2022-11-20T03:30:44;100531.56;;;-2.30;60.67
29371;BME280;16357;52.188;7.838;2022-11-20T03:33:10;100533.41;;;-2.32;60.16
29371;BME280;16357;52.188;7.838;2022-11-20T03:35:37;100530.97;;;-2.35;59.85
29371;BME280;16357;52.188;7.838;2022-11-20T03:38:03;100522.34;;;-2.37;59.90
29371;BME280;16357;52.188;7.838;2022-11-20T03:40:29;100520.72;;;-2.39;60.09
29371;BME280;16357;52.188;7.838;2022-11-20T03:42:57;100531.28;;;-2.41;60.48
29371;BME280;16357;52.188;7.838;2022-11-20T03:45:23;100526.09;;;-2.43;60.27
29371;BME280;16357;52.188;7.838;2022-11-20T03:47:49;100522.72;;;-2.45;60.67
29371;BME280;16357;52.188;7.838;2022-11-20T03:50:16;100530.66;;;-2.46;60.28
29371;BME280;16357;52.188;7.838;2022-11-20T03:52:42;100523.72;;;-2.47;60.18
29371;BME280;16357;52.188;7.838;2022-11-20T03:55:09;100530.00;;;-2.50;60.49
29371;BME280;16357;52.188;7.838;2022-11-20T03:57:35;100524.81;;;-2.51;60.31
29371;BME280;16357;52.188;7.838;2022-11-20T04:00:03;100518.78;;;-2.53;60.23
29371;BME280;16357;52.188;7.838;2022-11-20T04:02:29;100515.41;;;-2.55;60.64
29371;BME280;16357;52.188;7.838;2022-11-20T04:04:55;100510.16;;;-2.55;60.74
29371;BME280;16357;52.188;7.838;2022-11-20T04:07:22;100515.53;;;-2.58;60.82
29371;BME280;16357;52.188;7.838;2022-11-20T04:09:48;100508.59;;;-2.59;60.66
29371;BME280;16357;52.188;7.838;2022-11-20T04:12:15;100507.66;;;-2.58;60.54
29371;BME280;16357;52.188;7.838;2022-11-20T04:14:41;100510.44;;;-2.61;60.95
29371;BME280;16357;52.188;7.838;2022-11-20T04:17:07;100510.44;;;-2.61;60.73
29371;BME280;16357;52.188;7.838;2022-11-20T04:19:34;100504.41;;;-2.63;61.07
29371;BME280;16357;52.188;7.838;2022-11-20T04:22:00;100500.94;;;-2.64;60.55
29371;BME280;16357;52.188;7.838;2022-11-20T04:24:26;100505.34;;;-2.65;60.44
29371;BME280;16357;52.188;7.838;2022-11-20T04:26:53;100505.34;;;-2.65;60.16
29371;BME280;16357;52.188;7.838;2022-11-20T04:29:19;100506.28;;;-2.66;61.36
29371;BME280;16357;52.188;7.838;2022-11-20T04:31:46;100504.56;;;-2.67;60.01
29371;BME280;16357;52.188;7.838;2022-11-20T04:34:12;100505.50;;;-2.68;60.26
29371;BME280;16357;52.188;7.838;2022-11-20T04:36:39;100507.34;;;-2.70;60.79
29371;BME280;16357;52.188;7.838;2022-11-20T04:39:06;100505.66;;;-2.71;60.49
29371;BME280;16357;52.188;7.838;2022-11-20T04:41:34;100517.84;;;-2.70;60.67
29371;BME280;16357;52.188;7.838;2022-11-20T04:44:02;100515.34;;;-2.71;60.13
29371;BME280;16357;52.188;7.838;2022-11-20T04:46:31;100515.34;;;-2.71;60.56
29371;BME280;16357;52.188;7.838;2022-11-20T04:48:59;100509.19;;;-2.72;60.39
29371;BME280;16357;52.188;7.838;2022-11-20T04:51:26;100500.50;;;-2.72;60.39
29371;BME280;16357;52.188;7.838;2022-11-20T04:53:53;100497.88;;;-2.72;60.13
29371;BME280;16357;52.188;7.838;2022-11-20T04:56:19;100504.13;;;-2.75;60.74
29371;BME280;16357;52.188;7.838;2022-11-20T04:58:45;100507.69;;;-2.76;60.70
29371;BME280;16357;52.188;7.838;2022-11-20T05:01:14;100511.16;;;-2.75;60.68
29371;BME280;16357;52.188;7.838;2022-11-20T05:03:43;100513.00;;;-2.77;60.88
29371;BME280;16357;52.188;7.838;2022-11-20T05:06:11;100508.69;;;-2.78;60.49
29371;BME280;16357;52.188;7.838;2022-11-20T05:08:38;100512.22;;;-2.79;59.74
29371;BME280;16357;52.188;7.838;2022-11-20T05:11:09;100503.59;;;-2.81;60.41
29371;BME280;16357;52.188;7.838;2022-11-20T05:13:36;100511.53;;;-2.83;60.31
29371;BME280;16357;52.188;7.838;2022-11-20T05:16:08;100502.88;;;-2.85;60.42
29371;BME280;16357;52.188;7.838;2022-11-20T05:18:36;100504.72;;;-2.87;60.48
29371;BME280;16357;52.188;7.838;2022-11-20T05:21:03;100501.34;;;-2.89;61.19
29371;BME280;16357;52.188;7.838;2022-11-20T05:23:31;100491.84;;;-2.92;60.49
29371;BME280;16357;52.188;7.838;2022-11-20T05:25:58;100490.13;;;-2.93;60.47
29371;BME280;16357;52.188;7.838;2022-11-20T05:28:26;100488.44;;;-2.94;60.60
29371;BME280;16357;52.188;7.838;2022-11-20T05:30:53;100483.25;;;-2.95;60.53
29371;BME280;16357;52.188;7.838;2022-11-20T05:33:19;100490.28;;;-2.96;60.61
29371;BME280;16357;52.188;7.838;2022-11-20T05:35:46;100488.59;;;-2.97;61.22
29371;BME280;16357;52.188;7.838;2022-11-20T05:38:12;100488.66;;;-2.98;60.78
29371;BME280;16357;52.188;7.838;2022-11-20T05:40:39;100493.00;;;-2.97;61.37
29371;BME280;16357;52.188;7.838;2022-11-20T05:43:05;100485.19;;;-2.99;60.74
29371;BME280;16357;52.188;7.838;2022-11-20T05:45:31;100492.22;;;-2.99;61.21
29371;BME280;16357;52.188;7.838;2022-11-20T05:47:59;100487.81;;;-2.99;60.66
29371;BME280;16357;52.188;7.838;2022-11-20T05:50:28;100486.97;;;-2.99;60.43
29371;BME280;16357;52.188;7.838;2022-11-20T05:52:58;100492.28;;;-3.01;60.69
29371;BME280;16357;52.188;7.838;2022-11-20T05:55:29;100489.75;;;-3.02;60.68
29371;BME280;16357;52.188;7.838;2022-11-20T05:57:55;100493.38;;;-3.05;60.70
29371;BME280;16357;52.188;7.838;2022-11-20T06:00:22;100483.81;;;-3.06;60.24
29371;BME280;16357;52.188;7.838;2022-11-20T06:02:48;100497.00;;;-3.07;60.42
29371;BME280;16357;52.188;7.838;2022-11-20T06:05:15;100486.69;;;-3.11;60.55
29371;BME280;16357;52.188;7.838;2022-11-20T06:07:42;100483.28;;;-3.13;60.65
29371;BME280;16357;52.188;7.838;2022-11-20T06:10:09;100482.50;;;-3.15;60.91
29371;BME280;16357;52.188;7.838;2022-11-20T06:12:35;100487.72;;;-3.15;60.49
29371;BME280;16357;52.188;7.838;2022-11-20T06:15:03;100491.28;;;-3.16;60.83
29371;BME280;16357;52.188;7.838;2022-11-20T06:17:29;100491.28;;;-3.16;61.63
29371;BME280;16357;52.188;7.838;2022-11-20T06:19:55;100488.69;;;-3.16;60.99
29371;BME280;16357;52.188;7.838;2022-11-20T06:22:22;100490.41;;;-3.16;61.33
29371;BME280;16357;52.188;7.838;2022-11-20T06:24:48;100495.66;;;-3.16;61.02
29371;BME280;16357;52.188;7.838;2022-11-20T06:27:15;100493.03;;;-3.16;61.00
29371;BME280;16357;52.188;7.838;2022-11-20T06:29:42;100486.09;;;-3.17;61.16
29371;BME280;16357;52.188;7.838;2022-11-20T06:32:08;100491.34;;;-3.17;60.43
29371;BME280;16357;52.188;7.838;2022-11-20T06:34:35;100502.69;;;-3.17;60.67
29371;BME280;16357;52.188;7.838;2022-11-20T06:37:01;100501.84;;;-3.17;61.31
29371;BME280;16357;52.188;7.838;2022-11-20T06:39:27;100494.81;;;-3.17;60.91
29371;BME280;16357;52.188;7.838;2022-11-20T06:41:54;100499.22;;;-3.17;60.85
29371;BME280;16357;52.188;7.838;2022-11-20T06:44:24;100495.75;;;-3.18;60.85
29371;BME280;16357;52.188;7.838;2022-11-20T06:46:50;100501.00;;;-3.18;61.11
29371;BME280;16357;52.188;7.838;2022-11-20T06:49:17;100514.13;;;-3.18;60.81
29371;BME280;16357;52.188;7.838;2022-11-20T06:51:43;100514.13;;;-3.18;60.35
29371;BME280;16357;52.188;7.838;2022-11-20T06:54:10;100511.50;;;-3.18;61.28
29371;BME280;16357;52.188;7.838;2022-11-20T06:56:36;100517.59;;;-3.17;60.81
29371;BME280;16357;52.188;7.838;2022-11-20T06:59:06;100517.59;;;-3.17;60.97
29371;BME280;16357;52.188;7.838;2022-11-20T07:01:32;100522.84;;;-3.17;61.20
29371;BME280;16357;52.188;7.838;2022-11-20T07:03:58;100521.06;;;-3.17;60.81
29371;BME280;16357;52.188;7.838;2022-11-20T07:06:25;100516.66;;;-3.16;60.96
29371;BME280;16357;52.188;7.838;2022-11-20T07:08:51;100526.31;;;-3.17;61.01
29371;BME280;16357;52.188;7.838;2022-11-20T07:11:18;100525.41;;;-3.16;60.74
29371;BME280;16357;52.188;7.838;2022-11-20T07:13:45;100528.78;;;-3.14;61.78
29371;BME280;16357;52.188;7.838;2022-11-20T07:16:11;100530.50;;;-3.13;61.07
29371;BME280;16357;52.188;7.838;2022-11-20T07:18:38;100531.28;;;-3.11;61.49
29371;BME280;16357;52.188;7.838;2022-11-20T07:21:07;100531.19;;;-3.09;61.44
29371;BME280;16357;52.188;7.838;2022-11-20T07:23:34;100530.19;;;-3.06;61.59
29371;BME280;16357;52.188;7.838;2022-11-20T07:26:05;100530.88;;;-3.03;61.37
29371;BME280;16357;52.188;7.838;2022-11-20T07:28:32;100527.25;;;-3.00;61.86
29371;BME280;16357;52.188;7.838;2022-11-20T07:30:59;100535.75;;;-2.95;61.83
29371;BME280;16357;52.188;7.838;2022-11-20T07:33:25;100521.56;;;-2.91;61.95
29371;BME280;16357;52.188;7.838;2022-11-20T07:35:52;100519.47;;;-2.84;62.81
29371;BME280;16357;52.188;7.838;2022-11-20T07:38:18;100527.84;;;-2.76;62.88
29371;BME280;16357;52.188;7.838;2022-11-20T07:40:44;100524.72;;;-2.67;63.54
29371;BME280;16357;52.188;7.838;2022-11-20T07:43:11;100523.34;;;-2.57;63.43
29371;BME280;16357;52.188;7.838;2022-11-20T07:45:37;100521.09;;;-2.47;64.17
29371;BME280;16357;52.188;7.838;2022-11-20T07:48:04;100513.56;;;-2.37;63.88
29371;BME280;16357;52.188;7.838;2022-11-20T07:50:30;100517.38;;;-2.26;64.34
29371;BME280;16357;52.188;7.838;2022-11-20T07:53:01;100516.69;;;-2.13;64.33
29371;BME280;16357;52.188;7.838;2022-11-20T07:55:28;100510.91;;;-2.03;64.52
29371;BME280;16357;52.188;7.838;2022-11-20T07:57:55;100507.69;;;-1.92;64.86
29371;BME280;16357;52.188;7.838;2022-11-20T08:00:23;100510.59;;;-1.81;64.61
29371;BME280;16357;52.188;7.838;2022-11-20T08:02:49;100509.16;;;-1.70;64.38
29371;BME280;16357;52.188;7.838;2022-11-20T08:05:16;100504.16;;;-1.59;65.05
29371;BME280;16357;52.188;7.838;2022-11-20T08:07:43;100501.75;;;-1.48;64.48
29371;BME280;16357;52.188;7.838;2022-11-20T08:10:12;100501.16;;;-1.37;64.75
29371;BME280;16357;52.188;7.838;2022-11-20T08:12:49;100496.91;;;-1.24;65.42
29371;BME280;16357;52.188;7.838;2022-11-20T08:15:35;100492.72;;;-1.12;65.38
29371;BME280;16357;52.188;7.838;2022-11-20T08:18:09;100501.63;;;-0.99;64.64
29371;BME280;16357;52.188;7.838;2022-11-20T08:20:57;100495.66;;;-0.86;65.31
29371;BME280;16357;52.188;7.838;2022-11-20T08:23:23;100485.31;;;-0.75;65.33
29371;BME280;16357;52.188;7.838;2022-11-20T08:25:50;100491.63;;;-0.63;65.61
29371;BME280;16357;52.188;7.838;2022-11-20T08:28:17;100484.81;;;-0.52;65.12
29371;BME280;16357;52.188;7.838;2022-11-20T08:30:48;100489.34;;;-0.39;65.56
29371;BME280;16357;52.188;7.838;2022-11-20T08:33:14;100489.53;;;-0.28;65.51
29371;BME280;16357;52.188;7.838;2022-11-20T08:35:41;100490.69;;;-0.18;65.31
29371;BME280;16357;52.188;7.838;2022-11-20T08:38:08;100485.66;;;-0.08;65.01
29371;BME280;16357;52.188;7.838;2022-11-20T08:40:35;100487.63;;;0.03;64.96
29371;BME280;16357;52.188;7.838;2022-11-20T08:43:01;100480.19;;;0.09;65.00
29371;BME280;16357;52.188;7.838;2022-11-20T08:45:28;100477.09;;;0.17;64.87
29371;BME280;16357;52.188;7.838;2022-11-20T08:48:01;100483.69;;;0.24;65.26
29371;BME280;16357;52.188;7.838;2022-11-20T08:50:27;100487.59;;;0.31;65.06
29371;BME280;16357;52.188;7.838;2022-11-20T08:52:54;100493.34;;;0.38;64.70
29371;BME280;16357;52.188;7.838;2022-11-20T08:55:21;100492.03;;;0.45;64.92
29371;BME280;16357;52.188;7.838;2022-11-20T08:57:47;100491.53;;;0.53;65.21
29371;BME280;16357;52.188;7.838;2022-11-20T09:00:16;100499.06;;;0.59;64.97
29371;BME280;16357;52.188;7.838;2022-11-20T09:02:43;100507.31;;;0.67;64.75
29371;BME280;16357;52.188;7.838;2022-11-20T09:05:09;100496.34;;;0.73;64.75
29371;BME280;16357;52.188;7.838;2022-11-20T09:07:35;100492.47;;;0.79;64.44
29371;BME280;16357;52.188;7.838;2022-11-20T09:10:02;100491.25;;;0.84;64.71
29371;BME280;16357;52.188;7.838;2022-11-20T09:12:49;100498.75;;;0.91;64.44
29371;BME280;16357;52.188;7.838;2022-11-20T09:15:17;100485.25;;;0.95;64.50
29371;BME280;16357;52.188;7.838;2022-11-20T09:18:02;100484.00;;;1.01;64.53
29371;BME280;16357;52.188;7.838;2022-11-20T09:20:30;100481.91;;;1.06;64.55
29371;BME280;16357;52.188;7.838;2022-11-20T09:22:57;100493.00;;;1.11;64.74
29371;BME280;16357;52.188;7.838;2022-11-20T09:25:24;100488.28;;;1.16;64.84
29371;BME280;16357;52.188;7.838;2022-11-20T09:27:57;100504.53;;;1.23;64.69
29371;BME280;16357;52.188;7.838;2022-11-20T09:30:24;100491.03;;;1.27;64.71
29371;BME280;16357;52.188;7.838;2022-11-20T09:32:51;100482.69;;;1.34;64.67
29371;BME280;16357;52.188;7.838;2022-11-20T09:35:18;100477.84;;;1.40;64.69
29371;BME280;16357;52.188;7.838;2022-11-20T09:37:45;100474.78;;;1.46;64.93
29371;BME280;16357;52.188;7.838;2022-11-20T09:40:23;100477.72;;;1.54;64.36
29371;BME280;16357;52.188;7.838;2022-11-20T09:42:57;100472.88;;;1.61;64.78
29371;BME280;16357;52.188;7.838;2022-11-20T09:48:36;100468.13;;;1.79;64.68
29371;BME280;16357;52.188;7.838;2022-11-20T09:54:18;100466.94;;;1.96;64.75
29371;BME280;16357;52.188;7.838;2022-11-20T09:56:50;100458.56;;;2.02;64.32
29371;BME280;16357;52.188;7.838;2022-11-20T09:59:41;100447.56;;;2.08;64.53
29371;BME280;16357;52.188;7.838;2022-11-20T10:02:28;100447.09;;;2.14;64.26
29371;BME280;16357;52.188;7.838;2022-11-20T10:05:11;100449.44;;;2.19;64.40
29371;BME280;16357;52.188;7.838;2022-11-20T10:07:55;100456.09;;;2.25;64.26
29371;BME280;16357;52.188;7.838;2022-11-20T10:10:33;100438.91;;;2.30;64.08
29371;BME280;16357;52.188;7.838;2022-11-20T10:16:01;100446.06;;;2.41;64.33
29371;BME280;16357;52.188;7.838;2022-11-20T10:24:29;100433.41;;;2.57;63.74
29371;BME280;16357;52.188;7.838;2022-11-20T10:27:14;100425.03;;;2.63;63.83
29371;BME280;16357;52.188;7.838;2022-11-20T10:30:06;100428.19;;;2.69;64.00
29371;BME280;16357;52.188;7.838;2022-11-20T10:32:37;100418.06;;;2.74;63.74
29371;BME280;16357;52.188;7.838;2022-11-20T10:35:15;100416.88;;;2.78;63.38
29371;BME280;16357;52.188;7.838;2022-11-20T10:37:46;100425.34;;;2.83;63.53
29371;BME280;16357;52.188;7.838;2022-11-20T10:42:56;100419.56;;;2.89;63.10
29371;BME280;16357;52.188;7.838;2022-11-20T10:50:42;100411.69;;;3.00;63.23
29371;BME280;16357;52.188;7.838;2022-11-20T10:56:12;100402.03;;;3.11;63.19
29371;BME280;16357;52.188;7.838;2022-11-20T11:01:42;100395.94;;;3.21;63.02
29371;BME280;16357;52.188;7.838;2022-11-20T11:04:28;100400.88;;;3.26;63.02
29371;BME280;16357;52.188;7.838;2022-11-20T11:07:07;100397.78;;;3.32;62.74
29371;BME280;16357;52.188;7.838;2022-11-20T11:09:41;100402.69;;;3.37;63.17
29371;BME280;16357;52.188;7.838;2022-11-20T11:12:09;100398.03;;;3.40;62.79
29371;BME280;16357;52.188;7.838;2022-11-20T11:14:46;100386.19;;;3.44;62.67
29371;BME280;16357;52.188;7.838;2022-11-20T11:17:29;100388.59;;;3.47;62.72
29371;BME280;16357;52.188;7.838;2022-11-20T11:22:31;100374.88;;;3.54;62.35
29371;BME280;16357;52.188;7.838;2022-11-20T11:24:58;100376.47;;;3.56;62.56
29371;BME280;16357;52.188;7.838;2022-11-20T11:27:25;100374.53;;;3.58;62.40
29371;BME280;16357;52.188;7.838;2022-11-20T11:30:11;100371.50;;;3.63;62.32
29371;BME280;16357;52.188;7.838;2022-11-20T11:32:39;100365.94;;;3.66;62.44
29371;BME280;16357;52.188;7.838;2022-11-20T11:35:18;100368.38;;;3.69;62.52
29371;BME280;16357;52.188;7.838;2022-11-20T11:37:45;100362.81;;;3.72;62.63
29371;BME280;16357;52.188;7.838;2022-11-20T11:40:14;100365.22;;;3.75;62.83
29371;BME280;16357;52.188;7.838;2022-11-20T11:42:54;100363.06;;;3.80;62.67
29371;BME280;16357;52.188;7.838;2022-11-20T11:45:23;100353.88;;;3.84;62.51
29371;BME280;16357;52.188;7.838;2022-11-20T11:47:51;100343.97;;;3.86;62.32
29371;BME280;16357;52.188;7.838;2022-11-20T11:50:26;100343.72;;;3.89;61.97
29371;BME280;16357;52.188;7.838;2022-11-20T11:53:03;100340.00;;;3.92;62.41
29371;BME280;16357;52.188;7.838;2022-11-20T11:55:43;100344.09;;;3.96;62.53
29371;BME280;16357;52.188;7.838;2022-11-20T12:03:58;100335.25;;;4.07;62.33
29371;BME280;16357;52.188;7.838;2022-11-20T12:06:28;100330.69;;;4.09;61.88
29371;BME280;16357;52.188;7.838;2022-11-20T12:09:02;100334.06;;;4.11;62.07
29371;BME280;16357;52.188;7.838;2022-11-20T12:11:31;100330.44;;;4.12;62.07
29371;BME280;16357;52.188;7.838;2022-11-20T12:14:16;100328.59;;;4.12;61.92
29371;BME280;16357;52.188;7.838;2022-11-20T12:16:46;100329.59;;;4.11;61.87
29371;BME280;16357;52.188;7.838;2022-11-20T12:19:13;100323.44;;;4.11;61.48
29371;BME280;16357;52.188;7.838;2022-11-20T12:22:05;100318.13;;;4.11;61.61
29371;BME280;16357;52.188;7.838;2022-11-20T12:27:43;100305.81;;;4.10;62.14
29371;BME280;16357;52.188;7.838;2022-11-20T12:30:15;100300.50;;;4.10;61.96
29371;BME280;16357;52.188;7.838;2022-11-20T12:38:43;100298.31;;;4.15;61.94
29371;BME280;16357;52.188;7.838;2022-11-20T12:47:49;100282.09;;;4.29;62.62
29371;BME280;16357;52.188;7.838;2022-11-20T12:53:04;100281.78;;;4.44;62.64
29371;BME280;16357;52.188;7.838;2022-11-20T12:55:38;100277.66;;;4.51;62.78
29371;BME280;16357;52.188;7.838;2022-11-20T13:03:39;100267.69;;;4.64;61.41
29371;BME280;16357;52.188;7.838;2022-11-20T13:06:20;100267.94;;;4.61;61.19
29371;BME280;16357;52.188;7.838;2022-11-20T13:08:53;100262.84;;;4.58;60.87
29371;BME280;16357;52.188;7.838;2022-11-20T13:11:37;100270.38;;;4.53;61.12
29371;BME280;16357;52.188;7.838;2022-11-20T13:14:26;100258.47;;;4.47;61.16
29371;BME280;16357;52.188;7.838;2022-11-20T13:17:10;100259.69;;;4.43;61.21
29371;BME280;16357;52.188;7.838;2022-11-20T13:19:39;100254.88;;;4.37;60.88
29371;BME280;16357;52.188;7.838;2022-11-20T13:22:08;100249.84;;;4.34;61.35
29371;BME280;16357;52.188;7.838;2022-11-20T13:24:34;100245.63;;;4.31;61.38
29371;BME280;16357;52.188;7.838;2022-11-20T13:29:43;100242.66;;;4.25;61.49
29371;BME280;16357;52.188;7.838;2022-11-20T13:32:14;100234.81;;;4.23;61.85
29371;BME280;16357;52.188;7.838;2022-11-20T13:34:55;100218.88;;;4.23;61.74
29371;BME280;16357;52.188;7.838;2022-11-20T13:37:33;100205.59;;;4.23;62.42
29371;BME280;16357;52.188;7.838;2022-11-20T13:42:40;100188.91;;;4.32;62.65
29371;BME280;16357;52.188;7.838;2022-11-20T13:45:27;100187.41;;;4.39;62.35
29371;BME280;16357;52.188;7.838;2022-11-20T13:47:55;100182.53;;;4.45;62.55
29371;BME280;16357;52.188;7.838;2022-11-20T13:55:58;100165.44;;;4.58;62.26
29371;BME280;16357;52.188;7.838;2022-11-20T14:01:09;100167.69;;;4.63;62.06
29371;BME280;16357;52.188;7.838;2022-11-20T14:03:37;100159.59;;;4.65;62.00
29371;BME280;16357;52.188;7.838;2022-11-20T14:06:30;100144.38;;;4.67;61.89
29371;BME280;16357;52.188;7.838;2022-11-20T14:08:59;100144.38;;;4.67;62.00
29371;BME280;16357;52.188;7.838;2022-11-20T14:11:27;100155.81;;;4.67;61.63
29371;BME280;16357;52.188;7.838;2022-11-20T14:14:01;100152.19;;;4.68;61.64
29371;BME280;16357;52.188;7.838;2022-11-20T14:16:34;100138.63;;;4.71;61.90
29371;BME280;16357;52.188;7.838;2022-11-20T14:21:48;100131.09;;;4.76;62.13
29371;BME280;16357;52.188;7.838;2022-11-20T14:24:20;100130.84;;;4.79;61.84
29371;BME280;16357;52.188;7.838;2022-11-20T14:26:49;100138.56;;;4.82;61.73
29371;BME280;16357;52.188;7.838;2022-11-20T14:29:29;100130.31;;;4.86;61.79
29371;BME280;16357;52.188;7.838;2022-11-20T14:31:58;100126.53;;;4.88;61.90